createdAt,value
2018-11-06T00:01:27.562Z,28.80
2018-11-06T00:03:36.394Z,34.67
2018-11-06T00:05:39.918Z,25.23
2018-11-06T00:07:44.109Z,29.20
2018-11-06T00:09:48.947Z,24.63
2018-11-06T00:11:52.547Z,28.37
2018-11-06T00:13:56.235Z,29.23
2018-11-06T00:15:59.218Z,26.40
2018-11-06T00:18:03.659Z,27.60
2018-11-06T00:20:10.319Z,28.43
2018-11-06T00:22:13.582Z,33.23
2018-11-06T00:24:17.618Z,26.50
2018-11-06T00:26:21.749Z,28.07
2018-11-06T00:28:25.049Z,26.57
2018-11-06T00:30:28.438Z,30.47
2018-11-06T00:32:31.701Z,28.70
2018-11-06T00:34:35.456Z,54.43
2018-11-06T00:36:39.521Z,67.27
2018-11-06T00:38:42.822Z,131.73
2018-11-06T00:40:46.539Z,94.53
2018-11-06T00:42:50.014Z,460.83
2018-11-06T00:44:53.648Z,132.23
2018-11-06T00:46:56.895Z,38.33
2018-11-06T00:49:00.530Z,84.07
2018-11-06T00:51:05.790Z,71.83
2018-11-06T00:53:09.069Z,151.17
2018-11-06T00:55:12.832Z,44.67
2018-11-06T00:57:16.094Z,139.87
2018-11-06T00:59:19.348Z,37.40
2018-11-06T01:01:23.419Z,32.60
2018-11-06T01:03:32.107Z,31.30
2018-11-06T01:05:35.767Z,34.03
2018-11-06T01:07:39.099Z,26.40
2018-11-06T01:09:42.381Z,24.17
2018-11-06T01:11:46.558Z,23.83
2018-11-06T01:13:51.250Z,26.50
2018-11-06T01:15:54.827Z,22.83
2018-11-06T01:17:58.069Z,24.93
2018-11-06T01:20:01.360Z,22.73
2018-11-06T01:22:05.378Z,27.37
2018-11-06T01:24:09.251Z,29.83
2018-11-06T01:26:13.368Z,27.47
2018-11-06T01:28:16.623Z,43.83
2018-11-06T01:30:20.635Z,76.67
2018-11-06T01:32:25.354Z,59.90
2018-11-06T01:34:28.631Z,95.40
2018-11-06T01:36:32.426Z,158.27
2018-11-06T01:38:35.779Z,340.37
2018-11-06T01:40:39.063Z,86.13
2018-11-06T01:42:43.544Z,95.37
2018-11-06T01:44:46.881Z,34.33
2018-11-06T01:46:50.521Z,21.97
2018-11-06T01:48:53.790Z,24.23
2018-11-06T01:50:57.360Z,23.00
2018-11-06T01:53:02.018Z,23.30
2018-11-06T01:55:06.099Z,26.57
2018-11-06T01:57:10.203Z,29.23
2018-11-06T01:59:13.447Z,23.43
2018-11-06T02:01:16.718Z,35.50
2018-11-06T02:03:21.718Z,27.43
2018-11-06T02:05:24.997Z,25.80
2018-11-06T02:07:28.662Z,28.70
2018-11-06T02:09:32.211Z,27.30
2018-11-06T02:11:35.546Z,32.57
2018-11-06T02:13:40.358Z,27.07
2018-11-06T02:15:43.391Z,25.77
2018-11-06T02:17:47.272Z,27.30
2018-11-06T02:19:50.662Z,32.53
2018-11-06T02:21:55.227Z,33.40
2018-11-06T02:23:58.985Z,29.13
2018-11-06T02:26:02.262Z,21.97
2018-11-06T02:28:06.163Z,30.77
2018-11-06T02:30:11.423Z,30.60
2018-11-06T02:32:14.704Z,29.90
2018-11-06T02:34:19.999Z,24.03
2018-11-06T02:36:22.993Z,22.60
2018-11-06T02:38:26.618Z,19.87
2018-11-06T02:40:30.186Z,25.10
2018-11-06T02:42:33.429Z,22.80
2018-11-06T02:44:37.194Z,21.17
2018-11-06T02:46:40.486Z,28.23
2018-11-06T02:48:43.918Z,23.03
2018-11-06T02:50:47.167Z,24.60
2018-11-06T02:52:50.742Z,19.23
2018-11-06T02:54:55.002Z,21.63
2018-11-06T02:56:58.261Z,22.53
2018-11-06T02:59:02.273Z,28.53
2018-11-06T03:01:13.430Z,24.50
2018-11-06T03:03:16.691Z,17.37
2018-11-06T03:05:19.922Z,19.57
2018-11-06T03:07:23.510Z,23.43
2018-11-06T03:09:26.482Z,22.77
2018-11-06T03:11:30.642Z,23.27
2018-11-06T03:13:34.098Z,21.50
2018-11-06T03:15:37.330Z,21.37
2018-11-06T03:17:40.569Z,65.87
2018-11-06T03:19:45.583Z,26.80
2018-11-06T03:21:50.785Z,20.73
2018-11-06T03:23:54.059Z,22.50
2018-11-06T03:25:57.638Z,21.57
2018-11-06T03:28:00.909Z,19.43
2018-11-06T03:30:04.671Z,23.63
2018-11-06T03:32:09.094Z,23.50
2018-11-06T03:34:12.354Z,20.37
2018-11-06T03:36:15.602Z,25.63
2018-11-06T03:38:20.388Z,23.50
2018-11-06T03:40:23.631Z,23.43
2018-11-06T03:42:28.413Z,22.53
2018-11-06T03:44:31.777Z,16.83
2018-11-06T03:46:34.824Z,19.00
2018-11-06T03:48:37.831Z,29.80
2018-11-06T03:50:41.919Z,19.83
2018-11-06T03:52:46.002Z,39.27
2018-11-06T03:54:49.246Z,86.10
2018-11-06T03:56:54.394Z,33.60
2018-11-06T03:58:57.678Z,26.77
2018-11-06T04:01:00.938Z,17.73
2018-11-06T04:03:06.777Z,25.20
2018-11-06T04:05:10.591Z,26.30
2018-11-06T04:07:13.833Z,30.13
2018-11-06T04:09:17.375Z,63.07
2018-11-06T04:11:20.622Z,39.37
2018-11-06T04:13:24.741Z,112.10
2018-11-06T04:15:29.129Z,103.23
2018-11-06T04:17:32.363Z,119.63
2018-11-06T04:19:35.634Z,143.57
2018-11-06T04:21:40.344Z,145.67
2018-11-06T04:23:45.603Z,187.47
2018-11-06T04:25:48.843Z,231.77
2018-11-06T04:27:52.358Z,217.33
2018-11-06T04:29:55.608Z,363.27
2018-11-06T04:31:58.882Z,114.77
2018-11-06T04:34:04.186Z,295.50
2018-11-06T04:36:07.426Z,163.60
2018-11-06T04:38:10.678Z,88.67
2018-11-06T04:40:15.011Z,68.33
2018-11-06T04:42:18.337Z,39.70
2018-11-06T04:44:23.833Z,27.07
2018-11-06T04:46:27.276Z,95.77
2018-11-06T04:48:30.518Z,59.63
2018-11-06T04:51:54.433Z,103.53
2018-11-06T04:53:59.485Z,127.10
2018-11-06T04:56:04.281Z,79.47
2018-11-06T04:58:07.834Z,43.33
2018-11-06T05:00:13.634Z,63.13
2018-11-06T05:02:16.977Z,26.57
2018-11-06T05:04:20.941Z,26.20
2018-11-06T05:06:25.142Z,30.67
2018-11-06T05:08:28.425Z,31.47
2018-11-06T05:10:32.998Z,31.57
2018-11-06T05:12:36.366Z,21.23
2018-11-06T05:14:39.614Z,24.77
2018-11-06T05:16:43.919Z,20.87
2018-11-06T05:18:47.285Z,26.40
2018-11-06T05:20:50.534Z,19.70
2018-11-06T05:22:54.077Z,24.73
2018-11-06T05:24:57.426Z,26.93
2018-11-06T05:27:02.715Z,23.00
2018-11-06T05:29:07.135Z,24.93
2018-11-06T05:31:10.366Z,30.20
2018-11-06T05:33:13.610Z,27.20
2018-11-06T05:35:17.218Z,27.10
2018-11-06T05:37:21.392Z,26.93
2018-11-06T05:39:24.683Z,27.67
2018-11-06T05:41:28.223Z,25.00
2018-11-06T05:43:31.479Z,25.73
2018-11-06T05:45:34.794Z,27.30
2018-11-06T05:47:40.456Z,30.60
2018-11-06T05:49:43.738Z,28.93
2018-11-06T05:51:47.123Z,26.63
2018-11-06T05:53:50.386Z,24.53
2018-11-06T05:55:53.619Z,25.70
2018-11-06T05:57:57.878Z,29.33
2018-11-06T06:00:01.428Z,25.97
2018-11-06T06:02:04.663Z,26.33
2018-11-06T06:04:07.897Z,24.00
2018-11-06T06:06:12.858Z,22.17
2018-11-06T06:08:16.982Z,26.70
2018-11-06T06:10:20.241Z,22.47
2018-11-06T06:12:23.511Z,24.87
2018-11-06T06:14:26.757Z,28.97
2018-11-06T06:16:30.031Z,32.60
2018-11-06T06:18:34.334Z,28.70
2018-11-06T06:20:37.583Z,30.87
2018-11-06T06:22:41.009Z,24.43
2018-11-06T06:24:44.918Z,23.03
2018-11-06T06:26:48.174Z,22.13
2018-11-06T06:28:53.549Z,24.00
2018-11-06T06:30:57.038Z,28.75
2018-11-06T06:33:01.835Z,29.20
2018-11-06T06:35:05.513Z,24.90
2018-11-06T06:37:09.890Z,19.73
2018-11-06T06:39:14.186Z,22.20
2018-11-06T06:41:17.422Z,23.63
2018-11-06T06:43:21.265Z,23.20
2018-11-06T06:45:24.518Z,25.53
2018-11-06T06:47:27.802Z,42.83
2018-11-06T06:49:33.218Z,45.00
2018-11-06T06:51:36.471Z,39.30
2018-11-06T06:53:39.745Z,34.17
2018-11-06T06:55:43.285Z,48.80
2018-11-06T06:57:47.553Z,135.13
2018-11-06T06:59:51.546Z,48.03
2018-11-06T07:01:55.115Z,23.93
2018-11-06T07:03:58.375Z,29.33
2018-11-06T07:06:01.610Z,31.07
2018-11-06T07:08:06.567Z,48.30
2018-11-06T07:10:12.513Z,61.67
2018-11-06T07:12:15.759Z,89.07
2018-11-06T07:14:19.286Z,53.27
2018-11-06T07:16:22.549Z,31.70
2018-11-06T07:18:25.857Z,25.43
2018-11-06T07:20:30.674Z,205.73
2018-11-06T07:22:33.909Z,73.40
2018-11-06T07:24:37.152Z,79.50
2018-11-06T07:26:40.590Z,45.50
2018-11-06T07:28:43.871Z,23.90
2018-11-06T07:30:49.009Z,31.37
2018-11-06T07:32:52.579Z,21.07
2018-11-06T07:34:55.954Z,20.40
2018-11-06T07:36:59.067Z,25.40
2018-11-06T07:39:02.651Z,23.17
2018-11-06T07:41:06.625Z,18.60
2018-11-06T07:43:09.840Z,21.13
2018-11-06T07:45:17.538Z,18.33
2018-11-06T07:47:20.790Z,19.00
2018-11-06T07:49:24.039Z,20.27
2018-11-06T07:51:29.118Z,18.07
2018-11-06T07:53:32.390Z,18.13
2018-11-06T07:55:35.672Z,18.87
2018-11-06T07:57:38.953Z,22.93
2018-11-06T07:59:42.211Z,13.53
2018-11-06T08:01:46.285Z,21.10
2018-11-06T08:03:49.578Z,18.57
2018-11-06T08:05:52.827Z,21.60
2018-11-06T08:07:56.072Z,17.77
2018-11-06T08:10:01.622Z,17.43
2018-11-06T08:12:06.358Z,18.50
2018-11-06T08:14:09.607Z,19.10
2018-11-06T08:16:12.914Z,18.93
2018-11-06T08:18:16.161Z,21.60
2018-11-06T08:20:19.422Z,23.93
2018-11-06T08:22:23.859Z,24.20
2018-11-06T08:24:27.119Z,19.43
2018-11-06T08:26:30.357Z,25.77
2018-11-06T08:28:34.458Z,43.90
2018-11-06T08:30:37.943Z,59.77
2018-11-06T08:32:43.436Z,50.77
2018-11-06T08:34:46.582Z,30.77
2018-11-06T08:36:50.444Z,47.30
2018-11-06T08:38:53.674Z,83.67
2018-11-06T08:40:57.267Z,59.03
2018-11-06T08:43:01.422Z,36.40
2018-11-06T08:45:06.089Z,52.83
2018-11-06T08:47:10.478Z,46.40
2018-11-06T08:49:13.721Z,33.30
2018-11-06T08:51:17.034Z,45.40
2018-11-06T08:53:22.442Z,38.07
2018-11-06T08:55:25.713Z,57.60
2018-11-06T08:57:28.969Z,28.73
2018-11-06T08:59:32.631Z,31.73
2018-11-06T09:01:35.882Z,26.37
2018-11-06T09:03:40.067Z,29.13
2018-11-06T09:05:43.365Z,27.03
2018-11-06T09:07:46.640Z,26.70
2018-11-06T09:09:49.883Z,26.20
2018-11-06T09:11:55.029Z,27.73
2018-11-06T09:13:59.302Z,24.73
2018-11-06T09:16:02.578Z,22.17
2018-11-06T09:18:06.140Z,24.83
2018-11-06T09:20:10.799Z,25.93
2018-11-06T09:22:14.053Z,23.97
2018-11-06T09:24:18.802Z,21.40
2018-11-06T09:26:22.074Z,22.10
2018-11-06T09:28:25.342Z,25.87
2018-11-06T09:30:28.950Z,21.30
2018-11-06T09:32:32.325Z,18.63
2018-11-06T09:34:37.006Z,22.07
2018-11-06T09:36:40.567Z,20.27
2018-11-06T09:38:43.818Z,17.33
2018-11-06T09:40:47.064Z,17.97
2018-11-06T09:42:50.661Z,15.53
2018-11-06T09:44:54.823Z,19.97
2018-11-06T09:46:58.037Z,22.47
2018-11-06T09:49:01.662Z,20.60
2018-11-06T09:51:05.242Z,20.47
2018-11-06T09:53:08.565Z,22.87
2018-11-06T09:55:14.258Z,21.73
2018-11-06T09:57:17.494Z,25.00
2018-11-06T09:59:20.818Z,27.03
2018-11-06T10:01:24.102Z,31.23
2018-11-06T10:03:27.378Z,24.93
2018-11-06T10:05:31.810Z,21.47
2018-11-06T10:07:35.697Z,23.43
2018-11-06T10:09:38.917Z,21.43
2018-11-06T10:11:42.186Z,19.67
2018-11-06T10:13:47.418Z,21.73
2018-11-06T10:15:51.538Z,21.80
2018-11-06T10:17:54.785Z,19.27
2018-11-06T10:19:58.083Z,18.10
2018-11-06T10:22:01.326Z,20.60
2018-11-06T10:24:05.232Z,17.17
2018-11-06T10:26:09.722Z,18.00
2018-11-06T10:28:12.976Z,19.67
2018-11-06T10:30:18.058Z,19.60
2018-11-06T10:32:21.328Z,20.37
2018-11-06T10:34:24.678Z,16.57
2018-11-06T10:36:29.535Z,16.37
2018-11-06T10:38:33.025Z,17.40
2018-11-06T10:40:36.274Z,13.27
2018-11-06T10:42:39.545Z,17.13
2018-11-06T10:44:43.145Z,15.60
2018-11-06T10:46:47.381Z,14.90
2018-11-06T10:48:50.630Z,18.47
2018-11-06T10:50:53.960Z,16.77
2018-11-06T10:52:57.201Z,14.43
2018-11-06T10:55:00.522Z,18.67
2018-11-06T10:57:06.229Z,13.33
2018-11-06T10:59:09.603Z,13.93
2018-11-06T11:01:18.346Z,15.20
2018-11-06T11:03:27.369Z,14.60
2018-11-06T11:05:31.024Z,14.53
2018-11-06T11:07:35.228Z,14.27
2018-11-06T11:09:38.782Z,13.27
2018-11-06T11:11:42.021Z,15.17
2018-11-06T11:13:45.267Z,16.10
2018-11-06T11:15:50.806Z,14.10
2018-11-06T11:17:55.073Z,15.17
2018-11-06T11:19:58.318Z,12.60
2018-11-06T11:22:01.610Z,13.63
2018-11-06T11:24:05.678Z,13.97
2018-11-06T11:26:08.916Z,14.63
2018-11-06T11:28:13.374Z,11.53
2018-11-06T11:30:17.293Z,12.43
2018-11-06T11:32:20.551Z,14.47
2018-11-06T11:34:23.560Z,15.30
2018-11-06T11:36:26.834Z,13.07
2018-11-06T11:38:31.364Z,13.23
2018-11-06T11:40:34.920Z,17.67
2018-11-06T11:42:38.198Z,13.23
2018-11-06T11:44:41.436Z,15.20
2018-11-06T11:46:46.217Z,18.50
2018-11-06T11:48:50.590Z,13.77
2018-11-06T11:50:53.836Z,14.30
2018-11-06T11:52:57.425Z,16.70
2018-11-06T11:55:00.701Z,14.60
2018-11-06T11:57:04.054Z,19.73
2018-11-06T11:59:09.780Z,14.83
2018-11-06T12:01:13.074Z,17.03
2018-11-06T12:03:16.333Z,14.70
2018-11-06T12:05:20.138Z,13.53
2018-11-06T12:07:23.378Z,13.47
2018-11-06T12:09:27.382Z,16.77
2018-11-06T12:11:34.824Z,11.57
2018-11-06T12:13:38.202Z,11.40
2018-11-06T12:15:41.463Z,12.87
2018-11-06T12:17:47.674Z,13.23
2018-11-06T12:19:51.835Z,15.20
2018-11-06T12:21:55.290Z,14.63
2018-11-06T12:23:59.305Z,13.40
2018-11-06T12:26:02.558Z,13.20
2018-11-06T12:28:05.869Z,13.03
2018-11-06T12:30:13.328Z,10.90
2018-11-06T12:32:16.595Z,12.80
2018-11-06T12:34:19.838Z,10.83
2018-11-06T12:36:23.494Z,11.17
2018-11-06T12:38:26.807Z,13.00
2018-11-06T12:40:31.417Z,13.60
2018-11-06T12:42:36.291Z,15.57
2018-11-06T12:44:39.518Z,13.57
2018-11-06T12:46:42.778Z,16.93
2018-11-06T12:48:46.263Z,9.90
2018-11-06T12:50:50.918Z,11.97
2018-11-06T12:52:54.145Z,13.13
2018-11-06T12:54:57.756Z,9.87
2018-11-06T12:57:01.010Z,11.87
2018-11-06T12:59:04.308Z,11.33
2018-11-06T13:01:10.519Z,11.27
2018-11-06T13:03:13.811Z,10.30
2018-11-06T13:05:17.030Z,9.90
2018-11-06T13:07:20.593Z,11.57
2018-11-06T13:09:23.852Z,14.37
2018-11-06T13:11:27.917Z,11.07
2018-11-06T13:13:31.494Z,13.20
2018-11-06T13:15:37.843Z,10.67
2018-11-06T13:17:42.959Z,11.73
2018-11-06T13:19:50.518Z,15.00
2018-11-06T13:21:55.062Z,9.00
2018-11-06T13:23:58.437Z,12.77
2018-11-06T13:26:02.075Z,10.83
2018-11-06T13:28:05.525Z,12.60
2018-11-06T13:30:12.506Z,10.37
2018-11-06T13:32:16.943Z,12.03
2018-11-06T13:34:20.637Z,8.10
2018-11-06T13:36:23.890Z,9.60
2018-11-06T13:38:27.179Z,13.80
2018-11-06T13:40:30.503Z,13.07
2018-11-06T13:42:36.248Z,15.93
2018-11-06T13:44:39.562Z,13.63
2018-11-06T13:46:42.646Z,11.90
2018-11-06T13:48:45.898Z,12.37
2018-11-06T13:50:49.183Z,15.40
2018-11-06T13:52:53.217Z,11.93
2018-11-06T13:56:17.154Z,11.10
2018-11-06T13:58:21.058Z,14.23
2018-11-06T14:00:24.310Z,10.53
2018-11-06T14:02:27.754Z,12.33
2018-11-06T14:04:32.330Z,9.50
2018-11-06T14:06:36.001Z,11.90
2018-11-06T14:08:39.463Z,10.40
2018-11-06T14:10:42.734Z,12.10
2018-11-06T14:12:46.206Z,10.97
2018-11-06T14:14:51.087Z,12.13
2018-11-06T14:16:54.326Z,9.87
2018-11-06T14:18:57.567Z,9.20
2018-11-06T14:21:05.032Z,10.63
2018-11-06T14:23:08.234Z,8.97
2018-11-06T14:25:12.929Z,10.20
2018-11-06T14:27:16.587Z,10.37
2018-11-06T14:29:20.182Z,15.23
2018-11-06T14:31:23.413Z,14.10
2018-11-06T14:33:27.158Z,13.57
2018-11-06T14:35:31.311Z,15.93
2018-11-06T14:37:35.250Z,18.10
2018-11-06T14:39:38.878Z,18.87
2018-11-06T14:41:42.218Z,15.80
2018-11-06T14:43:45.478Z,14.70
2018-11-06T14:45:51.390Z,12.77
2018-11-06T14:47:54.703Z,17.30
2018-11-06T14:49:57.871Z,13.30
2018-11-06T14:52:01.657Z,13.73
2018-11-06T14:54:05.018Z,17.27
2018-11-06T14:56:09.182Z,11.90
2018-11-06T14:58:12.538Z,9.73
2018-11-06T15:00:17.980Z,11.07
2018-11-06T15:02:21.393Z,8.50
2018-11-06T15:04:25.831Z,10.37
2018-11-06T15:06:30.501Z,13.50
2018-11-06T15:08:34.333Z,10.50
2018-11-06T15:10:38.377Z,10.83
2018-11-06T15:12:41.959Z,11.43
2018-11-06T15:14:45.323Z,10.87
2018-11-06T15:16:50.169Z,12.80
2018-11-06T15:18:53.405Z,11.73
2018-11-06T15:20:57.421Z,13.97
2018-11-06T15:23:01.540Z,11.73
2018-11-06T15:25:05.450Z,9.73
2018-11-06T15:27:09.590Z,9.83
2018-11-06T15:29:15.063Z,10.07
2018-11-06T15:31:26.039Z,12.40
2018-11-06T15:33:29.422Z,9.23
2018-11-06T15:35:33.532Z,10.47
2018-11-06T15:37:41.867Z,10.80
2018-11-06T15:39:46.039Z,9.90
2018-11-06T15:41:51.822Z,13.83
2018-11-06T15:43:55.042Z,9.77
2018-11-06T15:45:58.291Z,7.50
2018-11-06T15:48:05.186Z,13.33
2018-11-06T15:50:10.069Z,10.77
2018-11-06T15:52:13.315Z,11.57
2018-11-06T15:54:16.989Z,9.27
2018-11-06T15:56:20.698Z,11.93
2018-11-06T15:58:24.939Z,15.53
2018-11-06T16:00:28.408Z,13.10
2018-11-06T16:02:31.664Z,13.73
2018-11-06T16:04:35.237Z,13.40
2018-11-06T16:06:39.537Z,17.97
2018-11-06T16:08:47.627Z,13.50
2018-11-06T16:10:50.875Z,12.73
2018-11-06T16:12:54.401Z,12.70
2018-11-06T16:14:57.666Z,21.27
2018-11-06T16:19:49.012Z,14.77
2018-11-06T16:21:55.967Z,21.70
2018-11-06T16:24:00.603Z,19.43
2018-11-06T16:26:04.222Z,22.60
2018-11-06T16:28:08.638Z,17.63
2018-11-06T16:30:16.657Z,18.10
2018-11-06T16:32:20.855Z,16.67
2018-11-06T16:34:24.117Z,15.70
2018-11-06T16:36:27.353Z,17.03
2018-11-06T16:38:31.775Z,20.03
2018-11-06T16:40:35.374Z,17.63
2018-11-06T16:42:42.403Z,18.10
2018-11-06T16:44:46.344Z,16.57
2018-11-06T16:46:49.677Z,19.47
2018-11-06T16:48:52.981Z,15.53
2018-11-06T16:50:56.414Z,16.83
2018-11-06T16:53:00.322Z,16.53
2018-11-06T16:55:03.576Z,15.33
2018-11-06T16:57:08.197Z,14.50
2018-11-06T16:59:11.902Z,13.47
2018-11-06T17:01:15.322Z,14.70
2018-11-06T17:03:20.175Z,14.57
2018-11-06T17:05:23.483Z,15.47
2018-11-06T17:07:28.556Z,16.40
2018-11-06T17:09:32.297Z,16.70
2018-11-06T17:11:41.584Z,16.13
2018-11-06T17:13:45.772Z,22.40
2018-11-06T17:15:49.776Z,17.77
2018-11-06T17:17:53.899Z,14.30
2018-11-06T17:19:57.149Z,15.10
2018-11-06T17:22:01.966Z,18.27
2018-11-06T17:24:07.033Z,16.20
2018-11-06T17:26:10.301Z,12.93
2018-11-06T17:28:14.039Z,12.27
2018-11-06T17:30:18.374Z,14.07
2018-11-06T17:32:21.854Z,10.93
2018-11-06T17:34:26.690Z,12.63
2018-11-06T17:36:30.526Z,13.10
2018-11-06T17:38:33.797Z,14.27
2018-11-06T17:40:37.322Z,14.80
2018-11-06T17:42:40.862Z,12.67
2018-11-06T17:44:46.347Z,13.50
2018-11-06T17:46:50.621Z,73.07
2018-11-06T17:48:53.980Z,117.03
2018-11-06T17:50:57.265Z,26.10
2018-11-06T17:53:01.986Z,17.17
2018-11-06T17:55:07.652Z,15.83
2018-11-06T17:57:10.926Z,16.50
2018-11-06T17:59:14.813Z,15.07
2018-11-06T18:01:18.461Z,15.90
2018-11-06T18:03:22.255Z,14.57
2018-11-06T18:05:28.341Z,15.67
2018-11-06T18:07:32.214Z,16.30
2018-11-06T18:09:35.600Z,16.57
2018-11-06T18:11:41.075Z,19.10
2018-11-06T18:13:45.440Z,16.50
2018-11-06T18:15:50.011Z,16.17
2018-11-06T18:17:53.932Z,14.70
2018-11-06T18:19:57.243Z,14.47
2018-11-06T18:22:00.638Z,19.47
2018-11-06T18:24:05.532Z,101.62
2018-11-06T18:26:09.704Z,14.27
2018-11-06T18:28:13.249Z,23.77
2018-11-06T18:30:18.929Z,24.10
2018-11-06T18:32:22.919Z,63.73
2018-11-06T18:34:26.499Z,34.70
2018-11-06T18:36:31.665Z,55.13
2018-11-06T18:38:35.148Z,32.13
2018-11-06T18:40:38.464Z,22.90
2018-11-06T18:42:42.507Z,16.50
2018-11-06T18:44:46.075Z,15.67
2018-11-06T18:46:50.699Z,14.30
2018-11-06T18:48:55.334Z,15.87
2018-11-06T18:50:58.701Z,16.67
2018-11-06T18:53:02.064Z,15.97
2018-11-06T18:55:07.120Z,22.03
2018-11-06T18:57:11.439Z,16.33
2018-11-06T18:59:15.254Z,13.37
2018-11-06T19:01:19.836Z,14.13
2018-11-06T19:03:24.201Z,20.17
2018-11-06T19:05:27.710Z,14.97
2018-11-06T19:07:33.732Z,41.53
2018-11-06T19:09:37.891Z,18.40
2018-11-06T19:11:42.300Z,27.93
2018-11-06T19:13:46.702Z,14.50
2018-11-06T19:15:51.259Z,12.20
2018-11-06T19:17:56.970Z,12.53
2018-11-06T19:20:04.180Z,16.53
2018-11-06T19:22:09.237Z,16.33
2018-11-06T19:24:20.796Z,16.97
2018-11-06T19:26:25.855Z,16.27
2018-11-06T19:28:30.971Z,13.73
2018-11-06T19:30:34.789Z,14.10
2018-11-06T19:32:39.276Z,10.80
2018-11-06T19:34:43.250Z,13.20
2018-11-06T19:36:48.875Z,14.53
2018-11-06T19:38:54.454Z,12.90
2018-11-06T19:40:58.996Z,15.50
2018-11-06T19:43:03.237Z,15.37
2018-11-06T19:45:09.056Z,14.07
2018-11-06T19:47:13.182Z,20.37
2018-11-06T19:49:19.282Z,13.87
2018-11-06T19:51:24.602Z,12.80
2018-11-06T19:53:28.817Z,15.33
2018-11-06T19:55:33.533Z,13.57
2018-11-06T19:57:38.709Z,14.30
2018-11-06T19:59:43.235Z,12.77
2018-11-06T20:01:47.485Z,14.17
2018-11-06T20:03:51.838Z,15.57
2018-11-06T20:06:01.243Z,20.70
2018-11-06T20:08:07.310Z,16.93
2018-11-06T20:10:15.973Z,17.50
2018-11-06T20:12:21.330Z,19.53
2018-11-06T20:14:25.880Z,14.53
2018-11-06T20:16:30.633Z,14.03
2018-11-06T20:18:34.235Z,17.27
2018-11-06T20:20:38.856Z,19.37
2018-11-06T20:22:42.746Z,18.70
2018-11-06T20:24:48.098Z,16.13
2018-11-06T20:26:53.163Z,19.03
2018-11-06T20:28:57.545Z,17.00
2018-11-06T20:31:03.192Z,17.17
2018-11-06T20:33:06.751Z,17.43
2018-11-06T20:35:12.629Z,13.43
2018-11-06T20:37:16.695Z,17.37
2018-11-06T20:39:20.960Z,18.53
2018-11-06T20:41:26.383Z,19.53
2018-11-06T20:43:30.033Z,17.60
2018-11-06T20:45:34.418Z,16.37
2018-11-06T20:47:38.832Z,18.00
2018-11-06T20:49:43.061Z,18.40
2018-11-06T20:51:49.217Z,21.30
2018-11-06T20:53:55.094Z,16.12
2018-11-06T20:55:59.323Z,15.03
2018-11-06T20:58:03.384Z,17.67
2018-11-06T21:00:10.471Z,14.57
2018-11-06T21:02:15.518Z,12.97
2018-11-06T21:04:19.681Z,13.90
2018-11-06T21:06:24.089Z,14.27
2018-11-06T21:08:28.233Z,17.87
2018-11-06T21:10:32.467Z,15.37
2018-11-06T21:12:39.220Z,15.93
2018-11-06T21:14:43.407Z,15.40
2018-11-06T21:16:47.425Z,22.10
2018-11-06T21:18:51.652Z,12.47
2018-11-06T21:20:55.753Z,13.10
2018-11-06T21:23:00.888Z,16.00
2018-11-06T21:25:07.723Z,12.03
2018-11-06T21:27:12.538Z,12.37
2018-11-06T21:29:16.477Z,14.57
2018-11-06T21:31:21.152Z,15.60
2018-11-06T21:33:26.903Z,11.43
2018-11-06T21:35:31.167Z,16.17
2018-11-06T21:37:35.170Z,15.53
2018-11-06T21:39:38.992Z,19.20
2018-11-06T21:41:42.434Z,13.93
2018-11-06T21:43:48.828Z,14.30
2018-11-06T21:45:52.272Z,16.57
2018-11-06T21:47:55.593Z,12.70
2018-11-06T21:50:00.067Z,12.33
2018-11-06T21:52:03.106Z,14.97
2018-11-06T21:54:08.078Z,11.60
2018-11-06T21:56:11.639Z,13.33
2018-11-06T21:58:14.886Z,16.57
2018-11-06T22:00:20.455Z,16.57
2018-11-06T22:02:23.837Z,13.80
2018-11-06T22:04:27.906Z,16.53
2018-11-06T22:06:31.178Z,14.97
2018-11-06T22:08:35.896Z,12.70
2018-11-06T22:10:39.137Z,15.13
2018-11-06T22:12:42.932Z,16.97
2018-11-06T22:14:48.330Z,14.17
2018-11-06T22:16:51.659Z,14.80
2018-11-06T22:18:54.906Z,16.50
2018-11-06T22:20:58.209Z,14.60
2018-11-06T22:23:01.448Z,15.37
2018-11-06T22:25:05.930Z,16.83
2018-11-06T22:27:10.293Z,17.43
2018-11-06T22:29:13.554Z,14.87
2018-11-06T22:31:16.815Z,17.50
2018-11-06T22:33:20.407Z,14.57
2018-11-06T22:35:25.921Z,17.83
2018-11-06T22:37:29.278Z,18.40
2018-11-06T22:39:32.634Z,18.97
2018-11-06T22:41:35.982Z,19.60
2018-11-06T22:43:39.222Z,19.63
2018-11-06T22:45:44.561Z,15.97
2018-11-06T22:47:47.810Z,18.20
2018-11-06T22:49:51.050Z,17.50
2018-11-06T22:51:54.527Z,17.40
2018-11-06T22:53:58.046Z,14.33
2018-11-06T22:56:05.608Z,14.27
2018-11-06T22:58:09.078Z,20.50
2018-11-06T23:00:16.052Z,16.43
2018-11-06T23:02:19.461Z,21.57
2018-11-06T23:04:23.237Z,17.57
2018-11-06T23:06:27.624Z,15.73
2018-11-06T23:08:31.012Z,19.70
2018-11-06T23:10:34.477Z,15.23
2018-11-06T23:12:37.789Z,18.07
2018-11-06T23:14:41.168Z,21.27
2018-11-06T23:16:46.588Z,49.83
2018-11-06T23:18:49.939Z,40.20
2018-11-06T23:20:53.351Z,17.90
2018-11-06T23:22:58.084Z,14.77
2018-11-06T23:25:01.506Z,20.47
2018-11-06T23:27:05.824Z,13.87
2018-11-06T23:29:09.736Z,14.67
2018-11-06T23:31:13.117Z,16.07
2018-11-06T23:33:16.475Z,16.27
2018-11-06T23:35:19.888Z,17.40
2018-11-06T23:37:25.395Z,16.50
2018-11-06T23:39:28.851Z,14.17
2018-11-06T23:41:33.051Z,12.70
2018-11-06T23:43:36.464Z,16.50
2018-11-06T23:45:39.832Z,15.20
2018-11-06T23:47:44.332Z,21.50
2018-11-06T23:49:47.698Z,17.63
2018-11-06T23:51:51.068Z,14.23
2018-11-06T23:53:54.694Z,12.83
2018-11-06T23:55:58.075Z,16.00
2018-11-06T23:58:03.431Z,14.47
